createdAt,value
2022-10-02T00:00:12.223Z,1000.65
2022-10-02T00:01:12.304Z,1000.70
2022-10-02T00:02:12.234Z,1000.68
2022-10-02T00:03:12.189Z,1000.69
2022-10-02T00:04:12.244Z,1000.71
2022-10-02T00:05:12.163Z,1000.71
2022-10-02T00:06:12.174Z,1000.74
2022-10-02T00:07:12.184Z,1000.74
2022-10-02T00:08:12.155Z,1000.74
2022-10-02T00:09:12.124Z,1000.74
2022-10-02T00:10:12.129Z,1000.76
2022-10-02T00:11:12.103Z,1000.78
2022-10-02T00:12:12.117Z,1000.73
2022-10-02T00:13:12.081Z,1000.82
2022-10-02T00:14:12.079Z,1000.77
2022-10-02T00:15:12.071Z,1000.78
2022-10-02T00:16:12.096Z,1000.86
2022-10-02T00:17:12.038Z,1000.85
2022-10-02T00:18:12.043Z,1000.84
2022-10-02T00:19:12.008Z,1000.90
2022-10-02T00:20:12.005Z,1000.86
2022-10-02T00:21:11.998Z,1000.90
2022-10-02T00:22:11.975Z,1000.95
2022-10-02T00:23:12.009Z,1000.87
2022-10-02T00:24:11.971Z,1000.86
2022-10-02T00:25:11.951Z,1000.91
2022-10-02T00:26:11.945Z,1000.90
2022-10-02T00:27:11.922Z,1000.90
2022-10-02T00:28:11.970Z,1000.90
2022-10-02T00:29:11.919Z,1000.87
2022-10-02T00:30:11.915Z,1000.89
2022-10-02T00:31:11.874Z,1000.92
2022-10-02T00:32:11.893Z,1000.86
2022-10-02T00:33:11.852Z,1000.88
2022-10-02T00:34:15.342Z,1000.89
2022-10-02T00:35:11.857Z,1000.87
2022-10-02T00:36:11.847Z,1000.95
2022-10-02T00:37:11.822Z,1000.96
2022-10-02T00:38:11.841Z,1000.92
2022-10-02T00:39:11.803Z,1000.90
2022-10-02T00:40:11.779Z,1000.90
2022-10-02T00:41:11.802Z,1000.94
2022-10-02T00:42:11.754Z,1000.93
2022-10-02T00:43:11.748Z,1000.98
2022-10-02T00:44:11.743Z,1000.96
2022-10-02T00:45:11.734Z,1000.91
2022-10-02T00:46:11.805Z,1000.96
2022-10-02T00:47:11.702Z,1001.03
2022-10-02T00:48:11.708Z,1000.99
2022-10-02T00:49:11.690Z,1000.97
2022-10-02T00:50:11.678Z,1000.99
2022-10-02T00:51:11.687Z,1001.04
2022-10-02T00:52:11.648Z,1001.00
2022-10-02T00:53:11.648Z,1001.00
2022-10-02T00:54:11.622Z,1000.98
2022-10-02T00:55:11.634Z,1001.06
2022-10-02T00:56:11.661Z,1001.07
2022-10-02T00:57:11.623Z,1001.04
2022-10-02T00:58:11.581Z,1001.04
2022-10-02T00:59:11.575Z,1001.04
2022-10-02T01:00:11.553Z,1001.07
2022-10-02T01:01:11.653Z,1001.10
2022-10-02T01:02:11.639Z,1001.04
2022-10-02T01:03:11.529Z,1001.05
2022-10-02T01:04:11.515Z,1001.09
2022-10-02T01:05:11.540Z,1001.03
2022-10-02T01:06:11.493Z,1001.05
2022-10-02T01:07:11.490Z,1001.02
2022-10-02T01:08:11.471Z,1001.05
2022-10-02T01:09:11.460Z,1001.10
2022-10-02T01:10:11.512Z,1001.12
2022-10-02T01:11:11.447Z,1001.08
2022-10-02T01:12:11.486Z,1001.11
2022-10-02T01:13:11.421Z,1001.14
2022-10-02T01:14:11.402Z,1001.10
2022-10-02T01:15:11.410Z,1001.08
2022-10-02T01:16:11.475Z,1001.09
2022-10-02T01:17:11.367Z,1001.08
2022-10-02T01:18:11.385Z,1001.19
2022-10-02T01:19:11.378Z,1001.15
2022-10-02T01:20:11.363Z,1001.16
2022-10-02T01:21:11.342Z,1001.15
2022-10-02T01:22:11.323Z,1001.17
2022-10-02T01:23:11.361Z,1001.26
2022-10-02T01:24:11.302Z,1001.23
2022-10-02T01:25:11.308Z,1001.20
2022-10-02T01:26:11.328Z,1001.21
2022-10-02T01:27:11.270Z,1001.24
2022-10-02T01:28:11.338Z,1001.24
2022-10-02T01:29:11.255Z,1001.19
2022-10-02T01:30:11.225Z,1001.21
2022-10-02T01:31:11.241Z,1001.20
2022-10-02T01:32:11.208Z,1001.22
2022-10-02T01:33:11.190Z,1001.25
2022-10-02T01:34:11.210Z,1001.26
2022-10-02T01:35:11.194Z,1001.32
2022-10-02T01:36:11.171Z,1001.22
2022-10-02T01:37:11.145Z,1001.23
2022-10-02T01:38:11.142Z,1001.29
2022-10-02T01:39:11.197Z,1001.32
2022-10-02T01:40:11.135Z,1001.27
2022-10-02T01:41:11.116Z,1001.29
2022-10-02T01:42:11.134Z,1001.33
2022-10-02T01:43:11.094Z,1001.33
2022-10-02T01:44:11.072Z,1001.33
2022-10-02T01:45:11.107Z,1001.32
2022-10-02T01:46:11.147Z,1001.31
2022-10-02T01:47:11.036Z,1001.34
2022-10-02T01:48:11.039Z,1001.34
2022-10-02T01:49:11.013Z,1001.38
2022-10-02T01:50:11.001Z,1001.36
2022-10-02T01:51:11.015Z,1001.34
2022-10-02T01:52:10.995Z,1001.42
2022-10-02T01:53:10.984Z,1001.39
2022-10-02T01:54:10.960Z,1001.44
2022-10-02T01:55:10.964Z,1001.41
2022-10-02T01:56:10.937Z,1001.41
2022-10-02T01:57:10.923Z,1001.43
2022-10-02T01:58:10.925Z,1001.45
2022-10-02T01:59:10.949Z,1001.46
2022-10-02T02:00:10.928Z,1001.51
2022-10-02T02:01:11.104Z,1001.46
2022-10-02T02:02:10.953Z,1001.52
2022-10-02T02:03:10.872Z,1001.56
2022-10-02T02:04:10.866Z,1001.50
2022-10-02T02:05:10.860Z,1001.57
2022-10-02T02:06:10.850Z,1001.50
2022-10-02T02:07:10.821Z,1001.46
2022-10-02T02:08:10.808Z,1001.46
2022-10-02T02:09:10.839Z,1001.51
2022-10-02T02:10:10.789Z,1001.48
2022-10-02T02:11:10.782Z,1001.52
2022-10-02T02:12:10.771Z,1001.48
2022-10-02T02:13:10.768Z,1001.59
2022-10-02T02:14:10.746Z,1001.57
2022-10-02T02:15:10.746Z,1001.58
2022-10-02T02:16:10.846Z,1001.62
2022-10-02T02:17:10.723Z,1001.61
2022-10-02T02:18:10.697Z,1001.68
2022-10-02T02:19:10.681Z,1001.59
2022-10-02T02:20:10.696Z,1001.60
2022-10-02T02:21:10.764Z,1001.63
2022-10-02T02:22:10.662Z,1001.57
2022-10-02T02:23:10.658Z,1001.61
2022-10-02T02:24:10.674Z,1001.60
2022-10-02T02:25:10.619Z,1001.54
2022-10-02T02:26:10.627Z,1001.56
2022-10-02T02:27:10.595Z,1001.57
2022-10-02T02:28:10.633Z,1001.57
2022-10-02T02:29:10.570Z,1001.62
2022-10-02T02:30:10.564Z,1001.64
2022-10-02T02:31:10.742Z,1001.62
2022-10-02T02:32:10.567Z,1001.61
2022-10-02T02:33:10.532Z,1001.61
2022-10-02T02:34:10.526Z,1001.65
2022-10-02T02:35:10.511Z,1001.60
2022-10-02T02:36:10.601Z,1001.56
2022-10-02T02:37:10.514Z,1001.56
2022-10-02T02:38:10.586Z,1001.62
2022-10-02T02:39:10.468Z,1001.55
2022-10-02T02:40:10.463Z,1001.59
2022-10-02T02:41:10.483Z,1001.63
2022-10-02T02:42:10.433Z,1001.60
2022-10-02T02:43:10.423Z,1001.59
2022-10-02T02:44:10.464Z,1001.60
2022-10-02T02:45:10.445Z,1001.61
2022-10-02T02:46:10.530Z,1001.62
2022-10-02T02:47:10.407Z,1001.65
2022-10-02T02:48:10.381Z,1001.64
2022-10-02T02:49:10.357Z,1001.66
2022-10-02T02:50:10.356Z,1001.63
2022-10-02T02:51:10.427Z,1001.59
2022-10-02T02:52:10.350Z,1001.66
2022-10-02T02:53:10.311Z,1001.69
2022-10-02T02:54:10.316Z,1001.68
2022-10-02T02:55:10.306Z,1001.65
2022-10-02T02:56:10.351Z,1001.62
2022-10-02T02:57:10.301Z,1001.61
2022-10-02T02:58:10.259Z,1001.65
2022-10-02T02:59:10.243Z,1001.64
2022-10-02T03:00:10.258Z,1001.59
2022-10-02T03:01:10.455Z,1001.61
2022-10-02T03:02:10.313Z,1001.60
2022-10-02T03:03:10.213Z,1001.65
2022-10-02T03:04:10.191Z,1001.62
2022-10-02T03:05:10.196Z,1001.65
2022-10-02T03:06:10.245Z,1001.64
2022-10-02T03:07:10.161Z,1001.64
2022-10-02T03:08:10.149Z,1001.68
2022-10-02T03:09:10.188Z,1001.68
2022-10-02T03:10:10.136Z,1001.63
2022-10-02T03:11:10.107Z,1001.63
2022-10-02T03:12:10.132Z,1001.64
2022-10-02T03:13:10.088Z,1001.63
2022-10-02T03:14:10.093Z,1001.65
2022-10-02T03:15:10.102Z,1001.75
2022-10-02T03:16:10.253Z,1001.68
2022-10-02T03:17:10.042Z,1001.70
2022-10-02T03:18:10.037Z,1001.65
2022-10-02T03:19:10.062Z,1001.65
2022-10-02T03:20:10.031Z,1001.67
2022-10-02T03:21:10.031Z,1001.68
2022-10-02T03:22:10.010Z,1001.75
2022-10-02T03:23:10.110Z,1001.74
2022-10-02T03:24:09.990Z,1001.71
2022-10-02T03:25:09.955Z,1001.72
2022-10-02T03:26:09.952Z,1001.73
2022-10-02T03:27:09.959Z,1001.73
2022-10-02T03:28:09.983Z,1001.77
2022-10-02T03:29:09.930Z,1001.73
2022-10-02T03:30:09.914Z,1001.76
2022-10-02T03:31:10.212Z,1001.81
2022-10-02T03:32:09.887Z,1001.74
2022-10-02T03:33:09.937Z,1001.79
2022-10-02T03:34:09.861Z,1001.71
2022-10-02T03:35:09.863Z,1001.69
2022-10-02T03:36:09.836Z,1001.70
2022-10-02T03:37:09.846Z,1001.69
2022-10-02T03:38:09.829Z,1001.71
2022-10-02T03:39:26.304Z,1001.75
2022-10-02T03:40:10.815Z,1001.74
2022-10-02T03:41:09.908Z,1001.78
2022-10-02T03:42:09.769Z,1001.76
2022-10-02T03:43:09.780Z,1001.77
2022-10-02T03:44:09.760Z,1001.80
2022-10-02T03:45:09.734Z,1001.74
2022-10-02T03:46:09.849Z,1001.77
2022-10-02T03:47:09.724Z,1001.80
2022-10-02T03:48:09.701Z,1001.86
2022-10-02T03:49:09.692Z,1001.82
2022-10-02T03:50:09.698Z,1001.86
2022-10-02T03:51:09.685Z,1001.90
2022-10-02T03:52:09.683Z,1001.80
2022-10-02T03:53:09.655Z,1001.88
2022-10-02T03:54:09.698Z,1001.82
2022-10-02T03:55:09.627Z,1001.81
2022-10-02T03:56:09.613Z,1001.79
2022-10-02T03:57:09.601Z,1001.77
2022-10-02T03:58:09.611Z,1001.79
2022-10-02T03:59:09.577Z,1001.78
2022-10-02T04:00:09.573Z,1001.76
2022-10-02T04:01:09.573Z,1001.74
2022-10-02T04:02:09.680Z,1001.66
2022-10-02T04:03:09.575Z,1001.67
2022-10-02T04:04:09.527Z,1001.70
2022-10-02T04:05:09.529Z,1001.69
2022-10-02T04:06:09.533Z,1001.65
2022-10-02T04:07:09.509Z,1001.71
2022-10-02T04:08:09.483Z,1001.80
2022-10-02T04:09:09.538Z,1001.76
2022-10-02T04:10:09.464Z,1001.73
2022-10-02T04:11:09.470Z,1001.82
2022-10-02T04:12:09.445Z,1001.76
2022-10-02T04:13:09.441Z,1001.86
2022-10-02T04:14:09.416Z,1001.83
2022-10-02T04:15:09.427Z,1001.90
2022-10-02T04:16:09.474Z,1001.94
2022-10-02T04:17:09.414Z,1001.91
2022-10-02T04:18:09.407Z,1001.93
2022-10-02T04:19:09.358Z,1001.93
2022-10-02T04:20:09.364Z,1001.85
2022-10-02T04:21:09.340Z,1001.84
2022-10-02T04:22:09.341Z,1001.84
2022-10-02T04:23:09.343Z,1001.85
2022-10-02T04:24:09.318Z,1001.85
2022-10-02T04:25:09.294Z,1001.93
2022-10-02T04:26:09.282Z,1001.87
2022-10-02T04:27:09.284Z,1001.87
2022-10-02T04:28:09.361Z,1001.88
2022-10-02T04:29:09.250Z,1001.85
2022-10-02T04:30:09.243Z,1001.89
2022-10-02T04:31:09.299Z,1001.86
2022-10-02T04:32:09.217Z,1001.93
2022-10-02T04:33:09.233Z,1001.86
2022-10-02T04:34:09.203Z,1001.90
2022-10-02T04:35:09.187Z,1001.87
2022-10-02T04:36:09.183Z,1001.88
2022-10-02T04:37:09.161Z,1001.90
2022-10-02T04:38:09.160Z,1001.98
2022-10-02T04:39:09.162Z,1001.92
2022-10-02T04:40:09.133Z,1001.94
2022-10-02T04:41:09.162Z,1001.91
2022-10-02T04:42:09.121Z,1002.03
2022-10-02T04:43:09.097Z,1001.92
2022-10-02T04:44:09.099Z,1002.03
2022-10-02T04:45:09.086Z,1002.05
2022-10-02T04:46:09.195Z,1002.08
2022-10-02T04:47:09.090Z,1001.99
2022-10-02T04:48:09.064Z,1002.02
2022-10-02T04:49:09.030Z,1002.00
2022-10-02T04:50:09.018Z,1002.07
2022-10-02T04:51:09.006Z,1002.08
2022-10-02T04:52:08.998Z,1002.08
2022-10-02T04:53:09.008Z,1002.11
2022-10-02T04:54:09.006Z,1002.05
2022-10-02T04:55:08.978Z,1002.04
2022-10-02T04:56:09.062Z,1002.09
2022-10-02T04:57:08.941Z,1002.10
2022-10-02T04:58:08.963Z,1002.09
2022-10-02T04:59:08.955Z,1002.12
2022-10-02T05:00:08.906Z,1002.08
2022-10-02T05:01:08.978Z,1002.11
2022-10-02T05:02:09.049Z,1002.11
2022-10-02T05:03:08.876Z,1002.09
2022-10-02T05:04:08.878Z,1002.20
2022-10-02T05:05:08.865Z,1002.21
2022-10-02T05:06:08.847Z,1002.17
2022-10-02T05:07:08.835Z,1002.20
2022-10-02T05:08:08.828Z,1002.20
2022-10-02T05:09:08.841Z,1002.16
2022-10-02T05:10:08.802Z,1002.18
2022-10-02T05:11:08.826Z,1002.20
2022-10-02T05:12:08.776Z,1002.22
2022-10-02T05:13:08.776Z,1002.19
2022-10-02T05:14:08.764Z,1002.16
2022-10-02T05:15:08.757Z,1002.23
2022-10-02T05:16:08.855Z,1002.23
2022-10-02T05:17:08.721Z,1002.23
2022-10-02T05:18:08.711Z,1002.19
2022-10-02T05:19:08.697Z,1002.18
2022-10-02T05:20:08.709Z,1002.24
2022-10-02T05:21:08.698Z,1002.22
2022-10-02T05:22:08.676Z,1002.31
2022-10-02T05:23:09.610Z,1002.26
2022-10-02T05:24:08.641Z,1002.29
2022-10-02T05:25:08.656Z,1002.28
2022-10-02T05:26:13.448Z,1002.25
2022-10-02T05:27:08.634Z,1002.27
2022-10-02T05:28:08.685Z,1002.29
2022-10-02T05:29:08.592Z,1002.28
2022-10-02T05:30:08.593Z,1002.27
2022-10-02T05:31:08.624Z,1002.22
2022-10-02T05:32:08.554Z,1002.17
2022-10-02T05:33:08.552Z,1002.19
2022-10-02T05:34:08.531Z,1002.11
2022-10-02T05:35:08.563Z,1002.10
2022-10-02T05:36:08.515Z,1002.11
2022-10-02T05:37:08.567Z,1002.17
2022-10-02T05:38:08.505Z,1002.05
2022-10-02T05:39:08.493Z,1002.14
2022-10-02T05:40:08.470Z,1002.06
2022-10-02T05:41:08.470Z,1002.10
2022-10-02T05:42:08.466Z,1002.15
2022-10-02T05:43:08.499Z,1002.11
2022-10-02T05:44:08.450Z,1002.05
2022-10-02T05:45:08.413Z,1002.00
2022-10-02T05:46:08.423Z,1002.02
2022-10-02T05:47:08.493Z,1002.07
2022-10-02T05:48:08.396Z,1002.04
2022-10-02T05:49:08.391Z,1002.01
2022-10-02T05:50:08.367Z,1001.99
2022-10-02T05:51:08.366Z,1002.05
2022-10-02T05:52:08.333Z,1001.97
2022-10-02T05:53:08.346Z,1002.01
2022-10-02T05:54:08.316Z,1002.01
2022-10-02T05:55:08.302Z,1002.06
2022-10-02T05:56:08.295Z,1002.10
2022-10-02T05:57:08.307Z,1002.12
2022-10-02T05:58:08.318Z,1002.07
2022-10-02T05:59:08.271Z,1002.03
2022-10-02T06:00:08.274Z,1002.09
2022-10-02T06:01:08.270Z,1002.10
2022-10-02T06:02:08.270Z,1002.10
2022-10-02T06:03:08.239Z,1002.16
2022-10-02T06:04:08.208Z,1002.10
2022-10-02T06:05:08.210Z,1002.12
2022-10-02T06:06:08.186Z,1002.16
2022-10-02T06:07:08.172Z,1002.14
2022-10-02T06:08:08.172Z,1002.07
2022-10-02T06:09:08.161Z,1002.09
2022-10-02T06:10:08.173Z,1002.14
2022-10-02T06:11:08.202Z,1002.13
2022-10-02T06:12:08.133Z,1002.14
2022-10-02T06:13:08.105Z,1002.14
2022-10-02T06:14:08.130Z,1002.12
2022-10-02T06:15:08.103Z,1002.18
2022-10-02T06:16:08.130Z,1002.14
2022-10-02T06:17:08.076Z,1002.13
2022-10-02T06:18:08.047Z,1002.14
2022-10-02T06:19:08.043Z,1002.12
2022-10-02T06:20:08.036Z,1002.13
2022-10-02T06:21:08.013Z,1002.17
2022-10-02T06:22:08.029Z,1002.13
2022-10-02T06:23:08.001Z,1002.12
2022-10-02T06:24:07.980Z,1002.13
2022-10-02T06:25:07.978Z,1002.17
2022-10-02T06:26:07.985Z,1002.10
2022-10-02T06:27:07.986Z,1002.06
2022-10-02T06:28:08.046Z,1002.01
2022-10-02T06:29:07.938Z,1001.98
2022-10-02T06:30:07.917Z,1001.97
2022-10-02T06:31:08.010Z,1002.03
2022-10-02T06:32:07.919Z,1002.00
2022-10-02T06:33:07.883Z,1002.06
2022-10-02T06:34:07.870Z,1002.07
2022-10-02T06:35:07.899Z,1002.04
2022-10-02T06:36:07.873Z,1002.03
2022-10-02T06:37:07.851Z,1002.04
2022-10-02T06:38:07.847Z,1002.06
2022-10-02T06:39:07.831Z,1002.07
2022-10-02T06:40:07.822Z,1002.04
2022-10-02T06:41:07.807Z,1002.04
2022-10-02T06:42:07.791Z,1002.09
2022-10-02T06:43:07.807Z,1002.05
2022-10-02T06:44:07.790Z,1002.06
2022-10-02T06:45:07.758Z,1002.04
2022-10-02T06:46:07.800Z,1002.06
2022-10-02T06:47:07.747Z,1002.02
2022-10-02T06:48:07.743Z,1002.07
2022-10-02T06:49:07.731Z,1002.15
2022-10-02T06:50:07.700Z,1002.10
2022-10-02T06:51:07.707Z,1002.15
2022-10-02T06:52:07.694Z,1002.16
2022-10-02T06:53:07.668Z,1002.13
2022-10-02T06:54:07.662Z,1002.16
2022-10-02T06:55:07.668Z,1002.20
2022-10-02T06:56:07.628Z,1002.23
2022-10-02T06:57:07.635Z,1002.25
2022-10-02T06:58:07.606Z,1002.31
2022-10-02T06:59:07.599Z,1002.31
2022-10-02T07:00:07.603Z,1002.33
2022-10-02T07:01:07.693Z,1002.29
2022-10-02T07:02:07.653Z,1002.29
2022-10-02T07:03:07.570Z,1002.29
2022-10-02T07:04:07.543Z,1002.27
2022-10-02T07:05:07.538Z,1002.23
2022-10-02T07:06:07.547Z,1002.25
2022-10-02T07:07:07.543Z,1002.29
2022-10-02T07:08:07.499Z,1002.23
2022-10-02T07:09:07.495Z,1002.25
2022-10-02T07:10:07.474Z,1002.22
2022-10-02T07:11:07.476Z,1002.22
2022-10-02T07:12:07.453Z,1002.25
2022-10-02T07:13:07.442Z,1002.15
2022-10-02T07:14:07.485Z,1002.19
2022-10-02T07:15:07.462Z,1002.11
2022-10-02T07:16:07.476Z,1002.12
2022-10-02T07:17:07.401Z,1002.19
2022-10-02T07:18:07.390Z,1002.10
2022-10-02T07:19:07.390Z,1002.17
2022-10-02T07:20:07.365Z,1002.24
2022-10-02T07:21:07.407Z,1002.20
2022-10-02T07:22:25.955Z,1002.17
2022-10-02T07:23:07.858Z,1002.16
2022-10-02T07:24:07.322Z,1002.22
2022-10-02T07:25:07.309Z,1002.21
2022-10-02T07:26:07.341Z,1002.27
2022-10-02T07:27:07.296Z,1002.25
2022-10-02T07:28:07.320Z,1002.27
2022-10-02T07:29:07.330Z,1002.25
2022-10-02T07:30:07.271Z,1002.28
2022-10-02T07:31:07.337Z,1002.26
2022-10-02T07:32:07.249Z,1002.19
2022-10-02T07:33:07.224Z,1002.20
2022-10-02T07:34:07.218Z,1002.24
2022-10-02T07:35:07.226Z,1002.24
2022-10-02T07:36:07.227Z,1002.16
2022-10-02T07:37:07.175Z,1002.23
2022-10-02T07:38:07.172Z,1002.16
2022-10-02T07:39:07.182Z,1002.21
2022-10-02T07:40:07.153Z,1002.24
2022-10-02T07:41:07.129Z,1002.25
2022-10-02T07:42:07.121Z,1002.26
2022-10-02T07:43:07.108Z,1002.28
2022-10-02T07:44:07.117Z,1002.35
2022-10-02T07:45:07.085Z,1002.30
2022-10-02T07:46:09.536Z,1002.33
2022-10-02T07:47:07.104Z,1002.37
2022-10-02T07:48:07.053Z,1002.33
2022-10-02T07:49:07.054Z,1002.35
2022-10-02T07:50:07.047Z,1002.36
2022-10-02T07:51:07.138Z,1002.43
2022-10-02T07:52:07.016Z,1002.46
2022-10-02T07:53:07.023Z,1002.45
2022-10-02T07:54:06.992Z,1002.40
2022-10-02T07:55:06.976Z,1002.40
2022-10-02T07:56:07.012Z,1002.36
2022-10-02T07:57:09.872Z,1002.36
2022-10-02T07:58:06.965Z,1002.31
2022-10-02T07:59:06.999Z,1002.28
2022-10-02T08:00:06.921Z,1002.29
2022-10-02T08:01:06.911Z,1002.33
2022-10-02T08:02:06.972Z,1002.28
2022-10-02T08:03:06.953Z,1002.19
2022-10-02T08:04:06.925Z,1002.26
2022-10-02T08:05:06.866Z,1002.26
2022-10-02T08:06:06.851Z,1002.26
2022-10-02T08:07:06.870Z,1002.27
2022-10-02T08:08:06.831Z,1002.32
2022-10-02T08:09:06.839Z,1002.38
2022-10-02T08:10:06.807Z,1002.38
2022-10-02T08:11:06.839Z,1002.41
2022-10-02T08:12:06.803Z,1002.40
2022-10-02T08:13:06.776Z,1002.43
2022-10-02T08:14:06.771Z,1002.46
2022-10-02T08:15:06.757Z,1002.44
2022-10-02T08:16:06.855Z,1002.47
2022-10-02T08:17:06.731Z,1002.48
2022-10-02T08:18:29.956Z,1002.47
2022-10-02T08:19:06.754Z,1002.50
2022-10-02T08:20:06.703Z,1002.47
2022-10-02T08:21:06.712Z,1002.40
2022-10-02T08:22:06.677Z,1002.43
2022-10-02T08:23:06.691Z,1002.45
2022-10-02T08:24:06.655Z,1002.38
2022-10-02T08:25:06.702Z,1002.42
2022-10-02T08:26:06.646Z,1002.38
2022-10-02T08:27:06.618Z,1002.44
2022-10-02T08:28:06.697Z,1002.41
2022-10-02T08:29:06.598Z,1002.42
2022-10-02T08:30:06.607Z,1002.49
2022-10-02T08:31:06.617Z,1002.44
2022-10-02T08:32:06.625Z,1002.48
2022-10-02T08:33:06.552Z,1002.51
2022-10-02T08:34:06.559Z,1002.53
2022-10-02T08:35:06.555Z,1002.50
2022-10-02T08:36:06.544Z,1002.41
2022-10-02T08:37:06.522Z,1002.38
2022-10-02T08:38:06.540Z,1002.43
2022-10-02T08:39:06.500Z,1002.41
2022-10-02T08:40:06.483Z,1002.41
2022-10-02T08:41:06.463Z,1002.40
2022-10-02T08:42:06.467Z,1002.42
2022-10-02T08:43:06.460Z,1002.42
2022-10-02T08:44:06.438Z,1002.39
2022-10-02T08:45:06.455Z,1002.41
2022-10-02T08:46:06.434Z,1002.40
2022-10-02T08:47:06.418Z,1002.43
2022-10-02T08:48:06.384Z,1002.37
2022-10-02T08:49:06.384Z,1002.43
2022-10-02T08:50:06.383Z,1002.39
2022-10-02T08:51:06.355Z,1002.45
2022-10-02T08:52:06.359Z,1002.41
2022-10-02T08:53:06.347Z,1002.39
2022-10-02T08:54:06.319Z,1002.44
2022-10-02T08:55:06.391Z,1002.43
2022-10-02T08:56:06.317Z,1002.38
2022-10-02T08:57:06.285Z,1002.42
2022-10-02T08:58:06.297Z,1002.38
2022-10-02T08:59:06.303Z,1002.38
2022-10-02T09:00:06.251Z,1002.38
2022-10-02T09:01:06.304Z,1002.33
2022-10-02T09:02:06.272Z,1002.34
2022-10-02T09:03:06.218Z,1002.30
2022-10-02T09:04:06.244Z,1002.32
2022-10-02T09:05:06.224Z,1002.29
2022-10-02T09:06:06.245Z,1002.34
2022-10-02T09:07:06.239Z,1002.30
2022-10-02T09:08:06.198Z,1002.22
2022-10-02T09:09:06.155Z,1002.28
2022-10-02T09:10:06.153Z,1002.27
2022-10-02T09:11:06.182Z,1002.31
2022-10-02T09:12:06.130Z,1002.26
2022-10-02T09:13:06.165Z,1002.22
2022-10-02T09:14:06.097Z,1002.21
2022-10-02T09:15:06.084Z,1002.21
2022-10-02T09:16:06.123Z,1002.27
2022-10-02T09:17:06.062Z,1002.21
2022-10-02T09:18:06.058Z,1002.18
2022-10-02T09:19:06.126Z,1002.19
2022-10-02T09:20:06.032Z,1002.17
2022-10-02T09:21:11.308Z,1002.08
2022-10-02T09:22:06.033Z,1002.14
2022-10-02T09:23:06.005Z,1002.15
2022-10-02T09:24:05.990Z,1002.15
2022-10-02T09:25:06.012Z,1002.10
2022-10-02T09:26:05.963Z,1002.08
2022-10-02T09:27:05.991Z,1002.07
2022-10-02T09:28:06.048Z,1002.01
2022-10-02T09:29:05.934Z,1002.06
2022-10-02T09:30:05.929Z,1002.05
2022-10-02T09:31:05.935Z,1001.99
2022-10-02T09:32:05.898Z,1001.97
2022-10-02T09:33:05.901Z,1002.00
2022-10-02T09:34:05.879Z,1001.96
2022-10-02T09:35:05.871Z,1002.00
2022-10-02T09:36:05.876Z,1001.98
2022-10-02T09:37:05.843Z,1002.05
2022-10-02T09:38:05.854Z,1002.07
2022-10-02T09:39:05.838Z,1002.00
2022-10-02T09:40:05.903Z,1002.04
2022-10-02T09:41:05.814Z,1002.01
2022-10-02T09:42:05.811Z,1001.98
2022-10-02T09:43:05.799Z,1001.97
2022-10-02T09:44:05.784Z,1002.03
2022-10-02T09:45:05.778Z,1002.03
2022-10-02T09:46:05.869Z,1002.04
2022-10-02T09:47:05.741Z,1002.05
2022-10-02T09:48:05.722Z,1002.03
2022-10-02T09:49:05.734Z,1001.94
2022-10-02T09:50:05.734Z,1001.98
2022-10-02T09:51:05.701Z,1001.94
2022-10-02T09:52:05.709Z,1001.94
2022-10-02T09:53:05.674Z,1001.92
2022-10-02T09:54:05.656Z,1001.99
2022-10-02T09:55:05.664Z,1002.03
2022-10-02T09:56:05.664Z,1001.98
2022-10-02T09:57:05.641Z,1002.03
2022-10-02T09:58:05.619Z,1002.05
2022-10-02T09:59:05.636Z,1002.01
2022-10-02T10:00:05.604Z,1001.97
2022-10-02T10:01:05.625Z,1002.09
2022-10-02T10:02:05.652Z,1002.03
2022-10-02T10:03:05.602Z,1002.06
2022-10-02T10:04:05.557Z,1001.97
2022-10-02T10:05:06.793Z,1002.02
2022-10-02T10:06:05.535Z,1002.08
2022-10-02T10:07:05.513Z,1002.11
2022-10-02T10:08:05.524Z,1002.06
2022-10-02T10:09:05.490Z,1002.07
2022-10-02T10:10:05.485Z,1002.05
2022-10-02T10:11:05.503Z,1002.05
2022-10-02T10:12:05.463Z,1002.03
2022-10-02T10:13:05.465Z,1001.99
2022-10-02T10:14:05.493Z,1002.00
2022-10-02T10:15:08.988Z,1002.00
2022-10-02T10:16:05.490Z,1001.98
2022-10-02T10:17:05.424Z,1001.95
2022-10-02T10:18:05.395Z,1001.99
2022-10-02T10:19:05.403Z,1002.00
2022-10-02T10:20:05.388Z,1001.99
2022-10-02T10:21:05.403Z,1002.05
2022-10-02T10:22:05.354Z,1002.01
2022-10-02T10:23:05.341Z,1002.02
2022-10-02T10:24:05.331Z,1001.98
2022-10-02T10:25:05.315Z,1001.97
2022-10-02T10:26:05.304Z,1001.97
2022-10-02T10:27:08.159Z,1001.96
2022-10-02T10:28:06.176Z,1001.95
2022-10-02T10:29:05.270Z,1001.95
2022-10-02T10:30:05.261Z,1001.94
2022-10-02T10:31:05.286Z,1001.93
2022-10-02T10:32:05.301Z,1002.01
2022-10-02T10:33:05.256Z,1001.93
2022-10-02T10:34:05.216Z,1001.92
2022-10-02T10:35:05.203Z,1001.96
2022-10-02T10:36:05.195Z,1001.96
2022-10-02T10:37:05.197Z,1001.99
2022-10-02T10:38:05.176Z,1001.94
2022-10-02T10:39:05.189Z,1002.02
2022-10-02T10:40:05.150Z,1001.96
2022-10-02T10:41:05.141Z,1001.99
2022-10-02T10:42:05.128Z,1002.01
2022-10-02T10:43:08.731Z,1001.98
2022-10-02T10:44:05.121Z,1001.98
2022-10-02T10:45:05.105Z,1001.95
2022-10-02T10:46:05.140Z,1001.93
2022-10-02T10:47:05.125Z,1001.97
2022-10-02T10:48:05.067Z,1002.01
2022-10-02T10:49:05.078Z,1001.96
2022-10-02T10:50:05.051Z,1001.96
2022-10-02T10:51:05.029Z,1001.95
2022-10-02T10:52:05.021Z,1001.94
2022-10-02T10:53:05.007Z,1001.92
2022-10-02T10:54:05.022Z,1001.85
2022-10-02T10:55:04.991Z,1001.85
2022-10-02T10:56:04.977Z,1001.91
2022-10-02T10:57:04.961Z,1001.87
2022-10-02T10:58:04.972Z,1001.82
2022-10-02T10:59:05.014Z,1001.81
2022-10-02T11:00:04.944Z,1001.78
2022-10-02T11:01:04.970Z,1001.75
2022-10-02T11:02:04.948Z,1001.79
2022-10-02T11:03:04.948Z,1001.80
2022-10-02T11:04:04.889Z,1001.79
2022-10-02T11:05:04.878Z,1001.77
2022-10-02T11:06:04.883Z,1001.77
2022-10-02T11:07:04.856Z,1001.77
2022-10-02T11:08:04.868Z,1001.78
2022-10-02T11:09:04.835Z,1001.78
2022-10-02T11:10:04.887Z,1001.81
2022-10-02T11:11:04.817Z,1001.81
2022-10-02T11:12:09.418Z,1001.79
2022-10-02T11:13:04.791Z,1001.82
2022-10-02T11:14:04.780Z,1001.83
2022-10-02T11:15:04.767Z,1001.77
2022-10-02T11:16:04.802Z,1001.86
2022-10-02T11:17:04.753Z,1001.81
2022-10-02T11:18:04.750Z,1001.81
2022-10-02T11:19:04.768Z,1001.81
2022-10-02T11:20:04.771Z,1001.81
2022-10-02T11:21:04.699Z,1001.85
2022-10-02T11:22:04.696Z,1001.83
2022-10-02T11:23:04.678Z,1001.82
2022-10-02T11:24:04.689Z,1001.78
2022-10-02T11:25:06.551Z,1001.77
2022-10-02T11:26:04.658Z,1001.84
2022-10-02T11:27:04.645Z,1001.84
2022-10-02T11:28:04.668Z,1001.86
2022-10-02T11:29:04.613Z,1001.86
2022-10-02T11:30:04.617Z,1001.77
2022-10-02T11:31:04.607Z,1001.78
2022-10-02T11:32:04.659Z,1001.79
2022-10-02T11:33:04.568Z,1001.81
2022-10-02T11:34:04.562Z,1001.80
2022-10-02T11:35:04.563Z,1001.78
2022-10-02T11:36:04.554Z,1001.73
2022-10-02T11:37:04.526Z,1001.77
2022-10-02T11:38:04.528Z,1001.76
2022-10-02T11:39:04.506Z,1001.70
2022-10-02T11:40:04.494Z,1001.70
2022-10-02T11:41:04.494Z,1001.62
2022-10-02T11:42:04.498Z,1001.68
2022-10-02T11:43:04.455Z,1001.65
2022-10-02T11:44:04.445Z,1001.68
2022-10-02T11:45:04.442Z,1001.64
2022-10-02T11:46:04.486Z,1001.60
2022-10-02T11:47:04.422Z,1001.59
2022-10-02T11:48:04.448Z,1001.60
2022-10-02T11:49:04.388Z,1001.58
2022-10-02T11:50:04.381Z,1001.64
2022-10-02T11:51:04.391Z,1001.61
2022-10-02T11:52:04.357Z,1001.59
2022-10-02T11:53:04.359Z,1001.66
2022-10-02T11:54:04.373Z,1001.62
2022-10-02T11:55:04.341Z,1001.60
2022-10-02T11:56:04.317Z,1001.62
2022-10-02T11:57:04.317Z,1001.56
2022-10-02T11:58:04.324Z,1001.54
2022-10-02T11:59:04.328Z,1001.55
2022-10-02T12:00:04.283Z,1001.55
2022-10-02T12:01:04.260Z,1001.56
2022-10-02T12:02:04.378Z,1001.58
2022-10-02T12:03:04.341Z,1001.49
2022-10-02T12:04:04.267Z,1001.61
2022-10-02T12:05:04.236Z,1001.57